Time;durP1;ratioP1;P1;durP2;ratioP2;P2;SDS_P1;SDS_P2;PMS_P1;PMS_P2;Temp;Humidity;BMP_temperature;BMP_pressure;BME280_temperature;BME280_humidity;BME280_pressure;Samples;Min_cycle;Max_cycle;Signal;HPM_P1;HPM_P2
2022/06/21 00:00:27;;;;;;;;;;;11.80;99.90;;;;;;5032466;28;19925;-73
2022/06/21 00:02:56;;;;;;;;;;;11.90;99.90;;;;;;5032590;28;19929;-72
2022/06/21 00:05:24;;;;;;;;;;;11.90;99.90;;;;;;5032365;28;20381;-73
2022/06/21 00:07:51;;;;;;;;;;;11.90;99.90;;;;;;5032605;28;19925;-72
2022/06/21 00:10:19;;;;;;;;;;;11.80;99.90;;;;;;5032681;28;19932;-72
2022/06/21 00:12:46;;;;;;;;;;;11.70;99.90;;;;;;5032275;28;19925;-72
2022/06/21 00:15:13;;;;;;;;;;;11.60;99.90;;;;;;5032578;28;19929;-72
2022/06/21 00:17:44;;;;;;;;;;;11.60;99.90;;;;;;5032327;28;19936;-72
2022/06/21 00:20:13;;;;;;;;;;;11.60;99.90;;;;;;5032384;28;20429;-72
2022/06/21 00:22:40;;;;;;;;;;;11.70;99.90;;;;;;5032403;28;19976;-73
2022/06/21 00:25:09;;;;;;;;;;;11.60;99.90;;;;;;5032214;28;19929;-72
2022/06/21 00:27:36;;;;;;;;;;;11.60;99.90;;;;;;5032206;28;19991;-72
2022/06/21 00:30:03;;;;;;;;;;;11.50;99.90;;;;;;5032223;28;20392;-72
2022/06/21 00:32:30;;;;;;;;;;;11.50;99.90;;;;;;5032109;28;19936;-72
2022/06/21 00:34:58;;;;;;;;;;;11.40;99.90;;;;;;5032029;28;20313;-72
2022/06/21 00:37:25;;;;;;;;;;;11.40;99.90;;;;;;5032338;28;19929;-72
2022/06/21 00:39:52;;;;;;;;;;;11.40;99.90;;;;;;5032062;28;19932;-72
2022/06/21 00:42:22;;;;;;;;;;;11.30;99.90;;;;;;5031845;28;19955;-72
2022/06/21 00:44:53;;;;;;;;;;;11.30;99.90;;;;;;5031766;28;19933;-73
2022/06/21 00:47:23;;;;;;;;;;;11.20;99.90;;;;;;5033670;28;19932;-72
2022/06/21 00:49:51;;;;;;;;;;;11.30;99.90;;;;;;5038509;28;19925;-72
2022/06/21 00:52:21;;;;;;;;;;;11.40;99.90;;;;;;5038372;28;20343;-72
2022/06/21 00:54:53;;;;;;;;;;;11.50;99.90;;;;;;5038480;28;19979;-73
2022/06/21 00:57:21;;;;;;;;;;;11.40;99.90;;;;;;5038750;28;20173;-72
2022/06/21 00:59:50;;;;;;;;;;;11.20;99.90;;;;;;5038559;28;19925;-72
2022/06/21 01:02:18;;;;;;;;;;;11.30;99.90;;;;;;5038390;28;20343;-72
2022/06/21 01:04:46;;;;;;;;;;;11.20;99.90;;;;;;5038529;28;19987;-72
2022/06/21 01:07:13;;;;;;;;;;;11.10;99.90;;;;;;5038734;28;19972;-72
2022/06/21 01:09:44;;;;;;;;;;;11.10;99.90;;;;;;5038488;28;20456;-72
2022/06/21 01:12:12;;;;;;;;;;;11.10;99.90;;;;;;5038573;28;19936;-72
2022/06/21 01:14:45;;;;;;;;;;;11.00;99.90;;;;;;5038284;28;19925;-72
2022/06/21 01:17:12;;;;;;;;;;;10.90;99.90;;;;;;5038513;28;19987;-72
2022/06/21 01:19:41;;;;;;;;;;;10.80;99.90;;;;;;5038261;28;19980;-72
2022/06/21 01:22:18;;;;;;;;;;;10.90;99.90;;;;;;5038377;28;20344;-72
2022/06/21 01:24:49;;;;;;;;;;;10.70;99.90;;;;;;5038361;28;19975;-72
2022/06/21 01:27:17;;;;;;;;;;;10.80;99.90;;;;;;5038375;28;20045;-72
2022/06/21 01:29:45;;;;;;;;;;;10.90;99.90;;;;;;5038236;28;20360;-72
2022/06/21 01:32:12;;;;;;;;;;;10.80;99.90;;;;;;5038535;28;19929;-71
2022/06/21 01:34:39;;;;;;;;;;;10.80;99.90;;;;;;5038222;28;19983;-73
2022/06/21 01:37:09;;;;;;;;;;;10.90;99.90;;;;;;5038576;28;19932;-72
2022/06/21 01:39:40;;;;;;;;;;;10.70;99.90;;;;;;5038349;28;19925;-72
2022/06/21 01:42:09;;;;;;;;;;;10.90;99.90;;;;;;5038188;28;19932;-73
2022/06/21 01:44:40;;;;;;;;;;;10.90;99.90;;;;;;5038100;28;19925;-72
2022/06/21 01:47:10;;;;;;;;;;;11.00;99.90;;;;;;5038169;28;20373;-72
2022/06/21 01:49:37;;;;;;;;;;;11.00;99.90;;;;;;5038105;28;19925;-72
2022/06/21 01:52:07;;;;;;;;;;;10.80;99.90;;;;;;5037887;28;20384;-73
2022/06/21 01:54:36;;;;;;;;;;;10.80;99.90;;;;;;5038733;28;20236;-72
2022/06/21 01:57:03;;;;;;;;;;;10.80;99.90;;;;;;5037822;28;19969;-72
2022/06/21 01:59:32;;;;;;;;;;;10.80;99.90;;;;;;5035616;28;19932;-72
2022/06/21 02:02:02;;;;;;;;;;;10.60;99.90;;;;;;5034898;28;19941;-73
2022/06/21 02:04:30;;;;;;;;;;;10.60;99.90;;;;;;5034769;28;20359;-72
2022/06/21 02:06:59;;;;;;;;;;;10.60;99.90;;;;;;5034591;28;19929;-71
2022/06/21 02:09:28;;;;;;;;;;;10.50;99.90;;;;;;5034911;28;19948;-72
2022/06/21 02:11:58;;;;;;;;;;;10.50;99.90;;;;;;5034606;28;19940;-72
2022/06/21 02:14:31;;;;;;;;;;;10.60;99.90;;;;;;5034659;28;20300;-72
2022/06/21 02:17:15;;;;;;;;;;;10.70;99.90;;;;;;5034966;28;19925;-71
2022/06/21 02:19:43;;;;;;;;;;;10.70;99.90;;;;;;5034881;28;19933;-73
2022/06/21 02:22:12;;;;;;;;;;;10.60;99.90;;;;;;5034322;28;19933;-72
2022/06/21 02:24:39;;;;;;;;;;;10.60;99.90;;;;;;5034890;28;19925;-72
2022/06/21 02:27:06;;;;;;;;;;;10.60;99.90;;;;;;5034462;28;20310;-72
2022/06/21 02:29:34;;;;;;;;;;;10.50;99.90;;;;;;5034305;28;19925;-72
2022/06/21 02:32:00;;;;;;;;;;;10.30;99.90;;;;;;5034269;28;19972;-72
2022/06/21 02:34:32;;;;;;;;;;;10.40;99.90;;;;;;5034089;28;19929;-72
2022/06/21 02:37:00;;;;;;;;;;;10.30;99.90;;;;;;5034264;28;19928;-72
2022/06/21 02:39:28;;;;;;;;;;;10.20;99.90;;;;;;5034149;28;19925;-71
2022/06/21 02:41:57;;;;;;;;;;;10.20;99.90;;;;;;5034084;28;19925;-72
2022/06/21 02:44:26;;;;;;;;;;;10.30;99.90;;;;;;5033945;28;19925;-73
2022/06/21 02:46:54;;;;;;;;;;;10.20;99.90;;;;;;5033838;28;19925;-72
2022/06/21 02:49:23;;;;;;;;;;;10.20;99.90;;;;;;5034025;28;19929;-72
2022/06/21 02:51:54;;;;;;;;;;;10.30;99.90;;;;;;5033854;28;19987;-72
2022/06/21 02:54:23;;;;;;;;;;;10.20;99.90;;;;;;5033992;28;19929;-74
2022/06/21 02:56:55;;;;;;;;;;;10.30;99.90;;;;;;5033959;28;20365;-72
2022/06/21 02:59:21;;;;;;;;;;;10.20;99.90;;;;;;5033972;28;20393;-72
2022/06/21 03:01:51;;;;;;;;;;;10.10;99.90;;;;;;5033817;28;19925;-71
2022/06/21 03:04:19;;;;;;;;;;;10.20;99.90;;;;;;5033672;28;20344;-72
2022/06/21 03:06:46;;;;;;;;;;;10.10;99.90;;;;;;5033585;28;19925;-73
2022/06/21 03:09:16;;;;;;;;;;;10.00;99.90;;;;;;5033758;28;19929;-71
2022/06/21 03:11:44;;;;;;;;;;;10.10;99.90;;;;;;5032315;28;20305;-72
2022/06/21 03:14:13;;;;;;;;;;;10.10;99.90;;;;;;5033524;28;19936;-72
2022/06/21 03:16:40;;;;;;;;;;;10.10;99.90;;;;;;5033516;28;19925;-72
2022/06/21 03:19:14;;;;;;;;;;;10.10;99.90;;;;;;5033403;28;19925;-72
2022/06/21 03:21:41;;;;;;;;;;;10.20;99.90;;;;;;5033434;28;19979;-72
2022/06/21 03:24:11;;;;;;;;;;;10.10;99.90;;;;;;5033331;28;19932;-72
2022/06/21 03:26:41;;;;;;;;;;;10.10;99.90;;;;;;5032871;28;19971;-72
2022/06/21 03:29:07;;;;;;;;;;;10.00;99.90;;;;;;5033312;28;20463;-73
2022/06/21 03:31:36;;;;;;;;;;;9.80;99.90;;;;;;5033428;28;20472;-72
2022/06/21 03:34:06;;;;;;;;;;;9.90;99.90;;;;;;5033053;28;19975;-72
2022/06/21 03:36:33;;;;;;;;;;;9.80;99.90;;;;;;5033189;28;20381;-72
2022/06/21 03:39:01;;;;;;;;;;;9.80;99.90;;;;;;5033017;28;19925;-71
2022/06/21 03:41:45;;;;;;;;;;;9.80;99.90;;;;;;5033141;28;19925;-72
2022/06/21 03:44:21;;;;;;;;;;;9.80;99.90;;;;;;5033184;28;19921;-72
2022/06/21 03:46:50;;;;;;;;;;;9.80;99.90;;;;;;5032908;28;19932;-72
2022/06/21 03:49:20;;;;;;;;;;;10.00;99.90;;;;;;5032974;28;19932;-73
2022/06/21 03:51:48;;;;;;;;;;;10.00;99.90;;;;;;5033217;28;19948;-72
2022/06/21 03:54:18;;;;;;;;;;;10.10;99.90;;;;;;5032950;28;19925;-72
2022/06/21 03:56:48;;;;;;;;;;;10.00;99.90;;;;;;5033135;28;20002;-72
2022/06/21 03:59:20;;;;;;;;;;;10.10;99.90;;;;;;5033553;28;19979;-72
2022/06/21 04:01:48;;;;;;;;;;;10.30;99.90;;;;;;5032934;28;19924;-72
2022/06/21 04:04:17;;;;;;;;;;;10.30;99.90;;;;;;5032628;28;19929;-72
2022/06/21 04:06:46;;;;;;;;;;;10.40;99.90;;;;;;5032442;28;19932;-72
2022/06/21 04:09:17;;;;;;;;;;;10.50;99.90;;;;;;5032793;28;19952;-72
2022/06/21 04:11:46;;;;;;;;;;;10.50;99.90;;;;;;5032483;28;19925;-72
2022/06/21 04:14:17;;;;;;;;;;;10.60;99.90;;;;;;5032957;28;19937;-72
2022/06/21 04:16:48;;;;;;;;;;;10.60;99.90;;;;;;5032573;28;19936;-72
2022/06/21 04:19:20;;;;;;;;;;;10.60;99.90;;;;;;5032478;28;19971;-72
2022/06/21 04:21:50;;;;;;;;;;;10.60;99.90;;;;;;5032009;28;19929;-72
2022/06/21 04:24:19;;;;;;;;;;;10.70;99.90;;;;;;5032465;28;19929;-72
2022/06/21 04:26:49;;;;;;;;;;;10.70;99.90;;;;;;5031865;28;20385;-73
2022/06/21 04:29:18;;;;;;;;;;;10.70;99.90;;;;;;5032446;28;19954;-71
2022/06/21 04:31:49;;;;;;;;;;;10.70;99.90;;;;;;5032213;28;19925;-72
2022/06/21 04:34:18;;;;;;;;;;;10.70;99.90;;;;;;5032302;28;20016;-72
2022/06/21 04:36:48;;;;;;;;;;;10.80;99.90;;;;;;5032588;28;19925;-73
2022/06/21 04:39:18;;;;;;;;;;;10.80;99.90;;;;;;5032345;28;19944;-73
2022/06/21 04:41:48;;;;;;;;;;;10.90;99.90;;;;;;5032132;28;19984;-72
2022/06/21 04:44:18;;;;;;;;;;;10.90;99.90;;;;;;5032291;28;19925;-72
2022/06/21 04:46:47;;;;;;;;;;;10.90;99.90;;;;;;5031941;28;19925;-72
2022/06/21 04:49:18;;;;;;;;;;;11.00;99.90;;;;;;5032139;28;19925;-72
2022/06/21 04:51:48;;;;;;;;;;;11.00;99.90;;;;;;5032309;28;19925;-72
2022/06/21 04:54:22;;;;;;;;;;;10.90;99.90;;;;;;5032138;28;20310;-72
2022/06/21 04:56:53;;;;;;;;;;;11.00;99.90;;;;;;5032412;28;19931;-72
2022/06/21 04:59:21;;;;;;;;;;;11.00;99.90;;;;;;5032183;28;19925;-71
2022/06/21 05:01:48;;;;;;;;;;;11.10;99.90;;;;;;5031962;28;19979;-72
2022/06/21 05:04:19;;;;;;;;;;;11.00;99.90;;;;;;5031688;28;19925;-72
2022/06/21 05:06:46;;;;;;;;;;;11.10;99.90;;;;;;5031889;28;19925;-72
2022/06/21 05:09:13;;;;;;;;;;;11.10;99.90;;;;;;5032059;28;19932;-72
2022/06/21 05:11:40;;;;;;;;;;;11.20;99.90;;;;;;5032298;28;19925;-72
2022/06/21 05:14:10;;;;;;;;;;;11.20;99.90;;;;;;5031938;28;19971;-72
2022/06/21 05:16:38;;;;;;;;;;;11.20;99.90;;;;;;5031816;28;20373;-72
2022/06/21 05:19:12;;;;;;;;;;;11.30;99.90;;;;;;5032837;28;19925;-72
2022/06/21 05:21:43;;;;;;;;;;;11.30;99.90;;;;;;5031714;28;20393;-72
2022/06/21 05:24:11;;;;;;;;;;;11.50;99.90;;;;;;5031943;28;20351;-72
2022/06/21 05:26:39;;;;;;;;;;;11.60;99.90;;;;;;5031663;28;19925;-72
2022/06/21 05:29:08;;;;;;;;;;;11.70;99.90;;;;;;5032013;28;19948;-72
2022/06/21 05:31:38;;;;;;;;;;;11.80;99.90;;;;;;5031607;28;20459;-72
2022/06/21 05:34:07;;;;;;;;;;;11.90;99.90;;;;;;5032611;28;19979;-72
2022/06/21 05:36:36;;;;;;;;;;;12.00;99.90;;;;;;5035286;28;19932;-72
2022/06/21 05:39:07;;;;;;;;;;;12.10;99.90;;;;;;5035517;28;19925;-72
2022/06/21 05:41:36;;;;;;;;;;;12.10;99.90;;;;;;5035806;28;19929;-72
2022/06/21 05:44:09;;;;;;;;;;;12.30;99.90;;;;;;5035554;28;19929;-72
2022/06/21 05:46:41;;;;;;;;;;;12.20;99.90;;;;;;5035342;28;19925;-72
2022/06/21 05:49:10;;;;;;;;;;;12.50;99.90;;;;;;5129481;22;20359;-72
2022/06/21 05:51:37;;;;;;;;;;;12.60;99.90;;;;;;5034832;28;19925;-73
2022/06/21 05:54:07;;;;;;;;;;;12.80;99.90;;;;;;5035042;28;20385;-72
2022/06/21 05:56:34;;;;;;;;;;;12.90;99.90;;;;;;5034696;28;19972;-73
2022/06/21 05:59:02;;;;;;;;;;;12.90;99.90;;;;;;5035085;28;20003;-73
2022/06/21 06:01:31;;;;;;;;;;;12.90;99.90;;;;;;5034710;28;19925;-72
2022/06/21 06:04:00;;;;;;;;;;;13.00;99.90;;;;;;5034980;28;19932;-72
2022/06/21 06:06:29;;;;;;;;;;;13.00;99.90;;;;;;5034372;28;19925;-72
2022/06/21 06:09:01;;;;;;;;;;;13.20;99.90;;;;;;5034823;28;19932;-72
2022/06/21 06:11:57;;;;;;;;;;;13.20;99.90;;;;;;5034459;28;20320;-72
2022/06/21 06:14:23;;;;;;;;;;;13.40;99.90;;;;;;5034180;28;19925;-72
2022/06/21 06:16:52;;;;;;;;;;;13.40;99.90;;;;;;5034470;28;19971;-70
2022/06/21 06:19:22;;;;;;;;;;;13.60;99.90;;;;;;5034543;28;20348;-70
2022/06/21 06:21:51;;;;;;;;;;;13.50;99.90;;;;;;5034198;28;19972;-71
2022/06/21 06:24:19;;;;;;;;;;;13.70;99.90;;;;;;5034541;28;19925;-71
2022/06/21 06:26:48;;;;;;;;;;;14.00;99.90;;;;;;5033896;28;19925;-71
2022/06/21 06:29:18;;;;;;;;;;;14.00;99.90;;;;;;5034226;28;19988;-71
2022/06/21 06:31:50;;;;;;;;;;;14.20;99.90;;;;;;5034121;28;19932;-71
2022/06/21 06:34:19;;;;;;;;;;;14.30;99.90;;;;;;5034431;28;19925;-71
2022/06/21 06:36:48;;;;;;;;;;;14.00;99.90;;;;;;5034082;28;19932;-71
2022/06/21 06:39:17;;;;;;;;;;;14.20;99.90;;;;;;5034090;28;19932;-72
2022/06/21 06:41:48;;;;;;;;;;;14.50;99.90;;;;;;5033991;28;19925;-71
2022/06/21 06:44:16;;;;;;;;;;;14.50;99.90;;;;;;5034342;28;19932;-72
2022/06/21 06:46:44;;;;;;;;;;;14.70;99.90;;;;;;5033237;28;19998;-70
2022/06/21 06:49:15;;;;;;;;;;;15.10;99.90;;;;;;5033995;28;19936;-70
2022/06/21 06:51:48;;;;;;;;;;;15.00;99.90;;;;;;5034052;28;19979;-71
2022/06/21 06:54:19;;;;;;;;;;;15.00;99.90;;;;;;5033782;28;19932;-72
2022/06/21 06:56:49;;;;;;;;;;;15.10;99.90;;;;;;5033782;28;20373;-72
2022/06/21 06:59:18;;;;;;;;;;;15.00;99.90;;;;;;5033536;28;19925;-71
2022/06/21 07:01:49;;;;;;;;;;;15.30;99.90;;;;;;5033858;28;19925;-71
2022/06/21 07:04:17;;;;;;;;;;;15.20;99.90;;;;;;5033810;28;19932;-71
2022/06/21 07:06:45;;;;;;;;;;;15.40;99.90;;;;;;5033288;28;20447;-72
2022/06/21 07:09:14;;;;;;;;;;;15.60;99.90;;;;;;5033839;28;19975;-71
2022/06/21 07:11:49;;;;;;;;;;;15.70;99.90;;;;;;5033344;28;20400;-71
2022/06/21 07:14:19;;;;;;;;;;;16.00;99.90;;;;;;5033409;28;19925;-72
2022/06/21 07:16:48;;;;;;;;;;;16.10;99.90;;;;;;5033405;28;19925;-71
2022/06/21 07:19:15;;;;;;;;;;;16.10;99.90;;;;;;5033632;28;19925;-72
2022/06/21 07:21:42;;;;;;;;;;;16.10;99.90;;;;;;5033264;28;20312;-71
2022/06/21 07:24:09;;;;;;;;;;;16.30;99.90;;;;;;5033582;28;19924;-72
2022/06/21 07:26:40;;;;;;;;;;;16.30;99.90;;;;;;5033205;28;20352;-72
2022/06/21 07:29:10;;;;;;;;;;;16.50;99.90;;;;;;5033499;28;19928;-71
2022/06/21 07:31:40;;;;;;;;;;;16.50;99.90;;;;;;5033324;28;19925;-71
2022/06/21 07:34:10;;;;;;;;;;;16.50;99.90;;;;;;5033096;28;19979;-71
2022/06/21 07:36:39;;;;;;;;;;;16.40;99.90;;;;;;5032815;28;19971;-72
2022/06/21 07:39:09;;;;;;;;;;;16.60;99.90;;;;;;5033098;28;19933;-71
2022/06/21 07:41:38;;;;;;;;;;;16.90;99.90;;;;;;5033423;28;19925;-72
2022/06/21 07:44:09;;;;;;;;;;;16.90;99.90;;;;;;5032695;28;20451;-72
2022/06/21 07:46:38;;;;;;;;;;;17.30;99.90;;;;;;5032945;28;19964;-71
2022/06/21 07:49:09;;;;;;;;;;;17.90;99.60;;;;;;5032768;28;19979;-72
2022/06/21 07:51:38;;;;;;;;;;;18.10;98.70;;;;;;5032807;28;19925;-71
2022/06/21 07:54:07;;;;;;;;;;;18.30;98.20;;;;;;5032789;28;19970;-71
2022/06/21 07:56:37;;;;;;;;;;;18.30;97.60;;;;;;5032152;28;19979;-69
2022/06/21 07:59:05;;;;;;;;;;;18.30;96.90;;;;;;5032394;28;19971;-70
2022/06/21 08:07:08;;;;;;;;;;;18.30;97.30;;;;;;5032507;28;19940;-70
2022/06/21 08:09:38;;;;;;;;;;;18.50;96.80;;;;;;5032548;28;20274;-70
2022/06/21 08:12:05;;;;;;;;;;;18.40;96.40;;;;;;5032242;28;19925;-70
2022/06/21 08:14:32;;;;;;;;;;;18.70;96.00;;;;;;5032487;28;19978;-71
2022/06/21 08:17:02;;;;;;;;;;;18.60;95.60;;;;;;5032293;28;19925;-70
2022/06/21 08:19:35;;;;;;;;;;;18.70;95.70;;;;;;5032430;28;20304;-70
2022/06/21 08:22:04;;;;;;;;;;;18.80;95.30;;;;;;5032262;28;20003;-70
2022/06/21 08:24:34;;;;;;;;;;;19.00;95.00;;;;;;5032325;28;19933;-70
2022/06/21 08:27:07;;;;;;;;;;;19.00;95.60;;;;;;5031895;28;19929;-70
2022/06/21 08:29:37;;;;;;;;;;;19.60;95.30;;;;;;5032232;28;19925;-70
2022/06/21 08:32:07;;;;;;;;;;;20.60;93.80;;;;;;5032017;28;19971;-70
2022/06/21 08:34:37;;;;;;;;;;;20.20;93.80;;;;;;5032067;28;19932;-70
2022/06/21 08:37:07;;;;;;;;;;;20.10;93.40;;;;;;5031842;28;19925;-70
2022/06/21 08:39:36;;;;;;;;;;;20.20;93.20;;;;;;5032293;28;20407;-70
2022/06/21 08:42:08;;;;;;;;;;;21.10;92.80;;;;;;5032010;28;19978;-70
2022/06/21 08:45:40;;;;;;;;;;;21.50;92.00;;;;;;5032148;28;19925;-72
2022/06/21 08:47:51;;;;;;;;;;;22.10;91.10;;;;;;5031580;28;19929;-72
2022/06/21 08:50:33;;;;;;;;;;;22.30;91.00;;;;;;5031893;28;19932;-72
2022/06/21 08:53:15;;;;;;;;;;;23.20;90.40;;;;;;5030018;28;20020;-72
2022/06/21 08:55:45;;;;;;;;;;;23.10;88.90;;;;;;5031756;28;19929;-68
2022/06/21 08:58:18;;;;;;;;;;;21.70;90.70;;;;;;5032037;28;19929;-70
2022/06/21 09:00:50;;;;;;;;;;;21.30;91.80;;;;;;5031802;28;19925;-70
2022/06/21 09:03:26;;;;;;;;;;;20.90;91.60;;;;;;5032049;28;19926;-70
2022/06/21 09:05:59;;;;;;;;;;;22.10;90.80;;;;;;5031480;28;19991;-70
2022/06/21 09:08:41;;;;;;;;;;;22.40;90.80;;;;;;5033456;28;20025;-73
2022/06/21 09:11:17;;;;;;;;;;;22.60;90.00;;;;;;5035787;28;19965;-72
2022/06/21 09:13:51;;;;;;;;;;;24.20;88.30;;;;;;5035642;28;19925;-73
2022/06/21 09:16:19;;;;;;;;;;;25.00;87.00;;;;;;5035528;28;19929;-70
2022/06/21 09:18:54;;;;;;;;;;;23.70;88.20;;;;;;5035627;28;20310;-70
2022/06/21 09:21:26;;;;;;;;;;;24.70;87.50;;;;;;5035629;28;19995;-70
2022/06/21 09:23:59;;;;;;;;;;;25.50;84.50;;;;;;5035406;28;20036;-70
2022/06/21 09:26:32;;;;;;;;;;;25.80;81.80;;;;;;5035532;28;19967;-70
2022/06/21 09:29:00;;;;;;;;;;;26.50;81.40;;;;;;5035409;28;19925;-70
2022/06/21 09:31:35;;;;;;;;;;;25.70;79.50;;;;;;5035465;28;19983;-70
2022/06/21 09:34:06;;;;;;;;;;;24.70;75.30;;;;;;5035642;28;19925;-70
2022/06/21 09:36:36;;;;;;;;;;;24.90;77.80;;;;;;5035405;28;19951;-70
2022/06/21 09:39:09;;;;;;;;;;;24.80;77.70;;;;;;5035355;28;19951;-70
2022/06/21 09:41:42;;;;;;;;;;;26.70;77.30;;;;;;5035032;28;19925;-69
2022/06/21 09:44:13;;;;;;;;;;;27.30;75.60;;;;;;5035438;28;19978;-70
2022/06/21 09:46:46;;;;;;;;;;;27.80;74.60;;;;;;5035212;28;19932;-70
2022/06/21 09:49:16;;;;;;;;;;;27.80;74.50;;;;;;5034978;28;19925;-71
2022/06/21 09:51:47;;;;;;;;;;;27.20;74.00;;;;;;5035339;28;20324;-70
2022/06/21 09:54:25;;;;;;;;;;;27.90;75.40;;;;;;5034825;28;19924;-70
2022/06/21 09:56:55;;;;;;;;;;;28.60;74.30;;;;;;5034866;28;19928;-71
2022/06/21 09:59:25;;;;;;;;;;;28.70;72.60;;;;;;5035009;28;19932;-70
2022/06/21 10:01:55;;;;;;;;;;;26.80;74.80;;;;;;5034754;28;19933;-70
2022/06/21 10:04:24;;;;;;;;;;;27.90;75.50;;;;;;5034837;28;19925;-70
2022/06/21 10:06:57;;;;;;;;;;;29.70;71.90;;;;;;5034373;28;20019;-70
2022/06/21 10:09:29;;;;;;;;;;;29.40;67.70;;;;;;5034772;28;19929;-70
2022/06/21 10:12:02;;;;;;;;;;;29.60;68.90;;;;;;5034458;28;19925;-70
2022/06/21 10:14:33;;;;;;;;;;;29.60;67.60;;;;;;5034544;28;19925;-70
2022/06/21 10:17:13;;;;;;;;;;;29.60;67.90;;;;;;5034527;28;20004;-70
2022/06/21 10:19:46;;;;;;;;;;;29.20;68.80;;;;;;5033967;28;19979;-70
2022/06/21 10:22:31;;;;;;;;;;;29.10;69.90;;;;;;5034406;28;19925;-70
2022/06/21 10:25:08;;;;;;;;;;;30.30;67.40;;;;;;5034192;28;19929;-70
2022/06/21 10:27:46;;;;;;;;;;;30.60;67.50;;;;;;5034894;28;19925;-70
2022/06/21 10:30:46;;;;;;;;;;;30.60;65.30;;;;;;5034283;28;20023;-70
2022/06/21 10:33:23;;;;;;;;;;;28.70;69.70;;;;;;4992612;28;19929;-70
2022/06/21 10:35:55;;;;;;;;;;;30.10;68.20;;;;;;4992417;28;19926;-70
2022/06/21 10:38:32;;;;;;;;;;;30.50;67.90;;;;;;5015598;28;20251;-70
2022/06/21 10:41:17;;;;;;;;;;;29.70;69.70;;;;;;5034811;28;19925;-70
2022/06/21 10:44:01;;;;;;;;;;;30.10;68.30;;;;;;5033524;28;20289;-70
2022/06/21 10:46:34;;;;;;;;;;;30.60;68.20;;;;;;5033904;28;19925;-70
2022/06/21 10:49:15;;;;;;;;;;;29.10;70.00;;;;;;5034106;28;19971;-70
2022/06/21 10:51:48;;;;;;;;;;;28.30;70.70;;;;;;5034087;28;19933;-70
2022/06/21 10:54:24;;;;;;;;;;;29.60;70.10;;;;;;5033994;28;19956;-69
2022/06/21 10:57:12;;;;;;;;;;;28.60;70.70;;;;;;5033790;28;19925;-70
2022/06/21 11:02:36;;;;;;;;;;;30.40;69.40;;;;;;5034050;28;19928;-69
2022/06/21 11:05:07;;;;;;;;;;;31.20;68.10;;;;;;5033629;28;19925;-70
2022/06/21 11:07:37;;;;;;;;;;;29.90;70.20;;;;;;5033764;28;19925;-69
2022/06/21 11:10:06;;;;;;;;;;;28.30;71.80;;;;;;5033817;28;19932;-70
2022/06/21 11:15:27;;;;;;;;;;;28.40;72.70;;;;;;5033361;28;19931;-70
2022/06/21 11:18:00;;;;;;;;;;;30.50;70.50;;;;;;5033574;28;19929;-69
2022/06/21 11:20:30;;;;;;;;;;;31.60;67.80;;;;;;5033885;28;20200;-69
2022/06/21 11:23:01;;;;;;;;;;;31.10;68.30;;;;;;5033372;28;19925;-70
2022/06/21 11:25:36;;;;;;;;;;;30.40;68.50;;;;;;5033307;28;20006;-70
2022/06/21 11:28:09;;;;;;;;;;;30.80;68.30;;;;;;5033212;28;20347;-70
2022/06/21 11:30:41;;;;;;;;;;;30.30;67.00;;;;;;5033684;28;19925;-69
2022/06/21 11:33:15;;;;;;;;;;;31.30;67.10;;;;;;5032091;28;19971;-70
2022/06/21 11:35:45;;;;;;;;;;;31.70;66.90;;;;;;5032830;28;20016;-68
2022/06/21 11:38:19;;;;;;;;;;;30.00;68.10;;;;;;5033085;28;19925;-68
2022/06/21 11:40:51;;;;;;;;;;;30.20;70.00;;;;;;5033190;28;20004;-68
2022/06/21 11:43:26;;;;;;;;;;;29.90;70.20;;;;;;5032984;28;19933;-68
2022/06/21 11:45:55;;;;;;;;;;;30.50;69.40;;;;;;5032812;28;19987;-68
2022/06/21 11:48:39;;;;;;;;;;;30.50;68.90;;;;;;5032576;28;20371;-70
2022/06/21 11:51:18;;;;;;;;;;;29.90;70.50;;;;;;5032857;28;19979;-68
2022/06/21 11:53:56;;;;;;;;;;;29.00;70.70;;;;;;5032665;28;19986;-68
2022/06/21 11:56:25;;;;;;;;;;;28.20;72.80;;;;;;5032475;28;20024;-68
2022/06/21 11:58:54;;;;;;;;;;;29.50;72.70;;;;;;5032860;28;19929;-68
2022/06/21 12:01:25;;;;;;;;;;;29.90;70.40;;;;;;5032727;28;19970;-68
2022/06/21 12:04:03;;;;;;;;;;;30.30;69.60;;;;;;5032428;28;19925;-69
2022/06/21 12:06:35;;;;;;;;;;;29.70;70.10;;;;;;5032318;28;19925;-68
2022/06/21 12:09:08;;;;;;;;;;;29.60;70.10;;;;;;5032466;28;19932;-68
2022/06/21 12:11:38;;;;;;;;;;;30.20;68.80;;;;;;5032433;28;19925;-68
2022/06/21 12:14:15;;;;;;;;;;;31.80;68.60;;;;;;5032847;28;19925;-68
2022/06/21 12:16:44;;;;;;;;;;;33.60;65.90;;;;;;5032317;28;19948;-68
2022/06/21 12:19:14;;;;;;;;;;;33.50;66.10;;;;;;5032479;28;19932;-68
2022/06/21 12:21:45;;;;;;;;;;;32.10;65.60;;;;;;5032468;28;19929;-68
2022/06/21 12:24:15;;;;;;;;;;;32.90;64.80;;;;;;5032170;28;19933;-68
2022/06/21 12:26:42;;;;;;;;;;;34.40;63.60;;;;;;5032198;28;19933;-70
2022/06/21 12:29:13;;;;;;;;;;;34.40;62.00;;;;;;5032078;28;20381;-70
2022/06/21 12:31:42;;;;;;;;;;;34.50;61.60;;;;;;5032167;28;20309;-70
2022/06/21 12:34:11;;;;;;;;;;;34.10;62.70;;;;;;5032350;28;20008;-70
2022/06/21 12:36:44;;;;;;;;;;;32.70;63.10;;;;;;5031741;28;19925;-70
2022/06/21 12:39:14;;;;;;;;;;;33.80;62.30;;;;;;5032629;28;19936;-70
2022/06/21 12:41:48;;;;;;;;;;;34.30;61.00;;;;;;5032013;28;20336;-69
2022/06/21 12:44:25;;;;;;;;;;;34.00;60.90;;;;;;5031908;28;20377;-69
2022/06/21 12:46:56;;;;;;;;;;;33.40;61.80;;;;;;5032186;28;20003;-70
2022/06/21 12:49:43;;;;;;;;;;;32.80;61.60;;;;;;5031792;28;19925;-70
2022/06/21 12:52:15;;;;;;;;;;;32.20;61.70;;;;;;5032034;28;19925;-70
2022/06/21 12:54:50;;;;;;;;;;;31.60;63.20;;;;;;5031754;28;19929;-70
2022/06/21 12:57:32;;;;;;;;;;;30.00;63.30;;;;;;5031864;28;19925;-70
2022/06/21 13:00:05;;;;;;;;;;;30.10;64.80;;;;;;5031825;28;19925;-71
2022/06/21 13:02:53;;;;;;;;;;;30.80;62.60;;;;;;5032067;28;19932;-70
2022/06/21 13:05:28;;;;;;;;;;;31.80;62.30;;;;;;5031514;28;19936;-70
2022/06/21 13:08:10;;;;;;;;;;;33.30;60.00;;;;;;5031758;28;19929;-69
2022/06/21 13:10:41;;;;;;;;;;;34.30;59.00;;;;;;5022605;28;19929;-70
2022/06/21 13:13:16;;;;;;;;;;;35.40;57.90;;;;;;5031500;28;19932;-70
2022/06/21 13:16:03;;;;;;;;;;;32.80;58.20;;;;;;5031367;28;20305;-70
2022/06/21 13:18:45;;;;;;;;;;;33.60;59.30;;;;;;5028366;28;20007;-70
2022/06/21 13:21:15;;;;;;;;;;;33.20;58.90;;;;;;5031535;28;20023;-70
2022/06/21 13:23:53;;;;;;;;;;;34.00;58.80;;;;;;5031532;28;19925;-70
2022/06/21 13:26:27;;;;;;;;;;;33.80;58.70;;;;;;5031568;28;19929;-70
2022/06/21 13:29:05;;;;;;;;;;;33.50;58.50;;;;;;5031603;28;19979;-70
2022/06/21 13:31:37;;;;;;;;;;;32.30;59.90;;;;;;5031960;28;19925;-70
2022/06/21 13:34:06;;;;;;;;;;;32.30;59.90;;;;;;5031537;28;19929;-70
2022/06/21 13:36:36;;;;;;;;;;;31.20;62.00;;;;;;5031184;28;19931;-70
2022/06/21 13:39:09;;;;;;;;;;;32.10;61.60;;;;;;5031464;28;20377;-70
2022/06/21 13:44:25;;;;;;;;;;;32.60;59.80;;;;;;5031423;28;19932;-70
2022/06/21 13:47:00;;;;;;;;;;;31.20;60.00;;;;;;5031226;28;20389;-70
2022/06/21 13:49:30;;;;;;;;;;;30.50;63.70;;;;;;5031074;28;19987;-70
2022/06/21 13:51:59;;;;;;;;;;;31.00;62.30;;;;;;5031462;28;19925;-69
2022/06/21 13:54:29;;;;;;;;;;;30.90;60.90;;;;;;5031168;28;19929;-70
2022/06/21 13:57:00;;;;;;;;;;;31.60;59.90;;;;;;5034175;28;20008;-70
2022/06/21 13:59:29;;;;;;;;;;;33.90;58.50;;;;;;5034568;28;20381;-70
2022/06/21 14:02:00;;;;;;;;;;;33.90;57.40;;;;;;5034903;28;20333;-70
2022/06/21 14:04:33;;;;;;;;;;;34.00;57.80;;;;;;5034818;28;19926;-70
2022/06/21 14:07:03;;;;;;;;;;;33.40;58.00;;;;;;5034831;28;19933;-70
2022/06/21 14:09:34;;;;;;;;;;;33.20;58.90;;;;;;5034678;28;19948;-70
2022/06/21 14:12:07;;;;;;;;;;;33.70;58.70;;;;;;5034253;28;19932;-70
2022/06/21 14:14:39;;;;;;;;;;;35.10;57.50;;;;;;5034819;28;19925;-70
2022/06/21 14:17:13;;;;;;;;;;;34.00;56.60;;;;;;5034266;28;19929;-70
2022/06/21 14:19:45;;;;;;;;;;;34.90;56.60;;;;;;5034602;28;19925;-70
2022/06/21 14:22:16;;;;;;;;;;;34.50;55.50;;;;;;5034362;28;20324;-70
2022/06/21 14:24:48;;;;;;;;;;;33.10;56.70;;;;;;5034487;28;19929;-70
2022/06/21 14:27:18;;;;;;;;;;;32.80;56.80;;;;;;5034297;28;19929;-70
2022/06/21 14:29:47;;;;;;;;;;;32.10;57.70;;;;;;5034254;28;19975;-70
2022/06/21 14:32:18;;;;;;;;;;;30.80;58.80;;;;;;5034351;28;19929;-70
2022/06/21 14:34:50;;;;;;;;;;;31.40;59.30;;;;;;5033970;28;19999;-70
2022/06/21 14:37:20;;;;;;;;;;;31.00;59.60;;;;;;5034150;28;19931;-70
2022/06/21 14:39:49;;;;;;;;;;;30.80;59.20;;;;;;5034128;28;20443;-70
2022/06/21 14:42:19;;;;;;;;;;;29.70;59.90;;;;;;5033924;28;19976;-68
2022/06/21 14:44:48;;;;;;;;;;;29.20;60.00;;;;;;5033747;28;19925;-68
2022/06/21 14:47:21;;;;;;;;;;;29.50;60.60;;;;;;5033830;28;20393;-68
2022/06/21 14:49:52;;;;;;;;;;;29.50;60.30;;;;;;5033851;28;19925;-68
2022/06/21 14:52:34;;;;;;;;;;;30.40;59.20;;;;;;5033966;28;19925;-68